Time;durP1;ratioP1;P1;durP2;ratioP2;P2;SDS_P1;SDS_P2;PMS_P1;PMS_P2;Temp;Humidity;BMP_temperature;BMP_pressure;BME280_temperature;BME280_humidity;BME280_pressure;Samples;Min_cycle;Max_cycle;Signal;HPM_P1;HPM_P2
2022/09/15 00:00:50;;;;;;;;;1.00;1.00;;;;;22.26;63.50;99752.50;4976334;28;45321;-75
2022/09/15 00:03:17;;;;;;;;;1.00;1.00;;;;;22.27;62.25;99740.97;4978106;28;45659;-79
2022/09/15 00:05:43;;;;;;;;;1.00;1.00;;;;;22.34;63.36;99748.72;4977427;28;46525;-72
2022/09/15 00:08:09;;;;;;;;;1.33;1.33;;;;;22.17;63.35;99717.25;4976099;28;45243;-79
2022/09/15 00:10:35;;;;;;;;;1.00;1.00;;;;;22.31;63.54;99732.84;4977266;28;45361;-77
2022/09/15 00:13:00;;;;;;;;;2.00;2.00;;;;;22.30;63.53;99740.84;4977819;28;45283;-77
2022/09/15 00:15:26;;;;;;;;;0.00;0.00;;;;;22.28;63.19;99738.22;4965903;28;46502;-78
2022/09/15 00:17:52;;;;;;;;;2.00;1.00;;;;;22.27;63.42;99738.31;4973189;28;45453;-80
2022/09/15 00:20:19;;;;;;;;;2.00;2.00;;;;;22.28;63.37;99748.00;4992628;28;45420;-79
2022/09/15 00:22:45;;;;;;;;;1.67;1.67;;;;;22.16;63.16;99722.63;4976213;28;45734;-73
2022/09/15 00:25:11;;;;;;;;;1.67;1.00;;;;;22.27;62.88;99727.66;4960863;28;46086;-76
2022/09/15 00:27:37;;;;;;;;;1.00;1.00;;;;;22.38;63.10;99741.47;4976561;28;45338;-80
2022/09/15 00:30:04;;;;;;;;;2.00;1.33;;;;;22.41;63.77;99742.25;4991961;28;45381;-67
2022/09/15 00:32:30;;;;;;;;;1.33;1.00;;;;;22.42;63.19;99744.03;4977504;28;45411;-67
2022/09/15 00:34:55;;;;;;;;;1.67;1.00;;;;;22.35;63.55;99721.16;4977213;28;46243;-67
2022/09/15 00:37:21;;;;;;;;;1.00;1.00;;;;;22.29;62.74;99718.72;4976262;28;45624;-67
2022/09/15 00:39:47;;;;;;;;;1.67;1.67;;;;;22.46;62.66;99749.22;4977259;28;45504;-67
2022/09/15 00:42:17;;;;;;;;;1.00;1.00;;;;;22.44;62.08;99744.84;4976870;28;45349;-67
2022/09/15 00:44:50;;;;;;;;;2.00;2.00;;;;;22.42;61.21;99746.69;4976731;28;45979;-79
2022/09/15 00:47:19;;;;;;;;;2.00;2.00;;;;;22.46;60.97;99747.44;4961760;28;45583;-67
2022/09/15 00:49:48;;;;;;;;;2.67;2.00;;;;;22.33;62.62;99733.66;4976656;28;45721;-68
2022/09/15 00:52:19;;;;;;;;;2.00;2.00;;;;;22.16;62.49;99715.53;4964485;28;45416;-68
2022/09/15 00:54:44;;;;;;;;;2.00;2.00;;;;;22.33;62.37;99738.13;4957301;28;46592;-79
2022/09/15 00:57:15;;;;;;;;;2.00;2.00;;;;;22.28;61.88;99727.59;4963519;28;47153;-76
2022/09/15 00:59:42;;;;;;;;;3.00;2.33;;;;;22.30;60.97;99732.88;4976760;28;45431;-78
2022/09/15 01:02:18;;;;;;;;;1.00;1.00;;;;;22.38;61.33;99741.47;4976777;28;45414;-79
2022/09/15 01:04:44;;;;;;;;;2.67;2.00;;;;;22.19;62.15;99703.91;4976240;28;45974;-79
2022/09/15 01:07:14;;;;;;;;;1.00;1.00;;;;;22.35;62.11;99730.94;4968144;28;45484;-79
2022/09/15 01:09:55;;;;;;;;;2.00;2.00;;;;;22.42;62.41;99738.69;4956357;28;45293;-71
2022/09/15 01:12:22;;;;;;;;;2.33;2.00;;;;;22.44;62.04;99734.19;4974400;28;46035;-74
2022/09/15 01:14:48;;;;;;;;;1.67;1.67;;;;;22.34;61.97;99707.91;4973892;28;45504;-67
2022/09/15 01:17:20;;;;;;;;;1.00;1.00;;;;;22.34;61.67;99713.22;4965808;28;45576;-67
2022/09/15 01:19:46;;;;;;;;;2.67;2.00;;;;;22.37;61.85;99731.78;4975826;28;45457;-67
2022/09/15 01:22:37;;;;;;;;;2.00;2.00;;;;;22.31;62.01;99718.66;4976812;28;45285;-67
2022/09/15 01:25:42;;;;;;;;;2.67;2.00;;;;;22.42;62.50;99736.03;4974624;28;46623;-67
2022/09/15 01:28:42;;;;;;;;;2.00;2.00;;;;;22.44;62.12;99728.88;4896345;29;45434;-67
2022/09/15 01:31:26;;;;;;;;;2.00;2.00;;;;;22.37;61.83;99723.78;4831472;29;45618;-76
2022/09/15 01:34:02;;;;;;;;;3.00;2.67;;;;;22.39;61.63;99724.63;4961806;28;45498;-77
2022/09/15 01:36:40;;;;;;;;;2.00;2.00;;;;;22.24;62.14;99712.66;4964017;28;46030;-78
2022/09/15 01:39:19;;;;;;;;;2.00;2.00;;;;;22.02;62.98;99691.13;4961317;28;45432;-79
2022/09/15 01:41:52;;;;;;;;;2.00;2.00;;;;;22.01;61.88;99711.53;4975238;28;45606;-68
2022/09/15 01:44:24;;;;;;;;;3.00;2.00;;;;;21.98;62.88;99732.03;4976142;28;45421;-67
2022/09/15 01:46:55;;;;;;;;;2.00;2.00;;;;;21.87;63.30;99727.03;4974394;28;45563;-67
2022/09/15 01:49:29;;;;;;;;;2.33;2.00;;;;;21.71;63.73;99708.03;4962549;28;45404;-67
2022/09/15 01:51:54;;;;;;;;;3.00;3.00;;;;;21.69;63.86;99727.59;4976538;28;45520;-67
2022/09/15 01:54:27;;;;;;;;;2.00;2.00;;;;;21.57;65.23;99720.84;4972798;28;45563;-67
2022/09/15 01:56:52;;;;;;;;;2.00;1.67;;;;;21.51;64.85;99732.50;4961496;28;46643;-67
2022/09/15 01:59:18;;;;;;;;;2.00;2.00;;;;;21.52;65.02;99728.06;4975655;28;45487;-79
2022/09/15 02:01:58;;;;;;;;;3.00;2.00;;;;;21.50;64.69;99717.47;4976460;28;45346;-79
2022/09/15 02:04:32;;;;;;;;;3.33;3.00;;;;;21.51;64.49;99721.00;4975905;28;46300;-80
2022/09/15 02:07:06;;;;;;;;;2.33;2.00;;;;;21.31;64.00;99685.22;4975943;28;45438;-80
2022/09/15 02:09:41;;;;;;;;;3.00;2.00;;;;;21.53;64.46;99714.72;4964974;28;45528;-80
2022/09/15 02:12:18;;;;;;;;;2.33;2.00;;;;;21.52;65.02;99718.28;4975357;28;45651;-80
2022/09/15 02:14:47;;;;;;;;;2.00;2.00;;;;;21.47;65.23;99714.91;4968046;28;46275;-67
2022/09/15 02:17:18;;;;;;;;;3.00;2.00;;;;;21.35;65.21;99704.59;4977815;28;46323;-67
2022/09/15 02:19:53;;;;;;;;;2.67;2.33;;;;;21.41;64.82;99723.03;4978191;28;46970;-67
2022/09/15 02:22:26;;;;;;;;;2.33;2.33;;;;;21.39;64.42;99727.50;4976988;28;45525;-67
2022/09/15 02:25:01;;;;;;;;;2.00;2.00;;;;;21.30;64.59;99707.34;4978339;28;45385;-67
2022/09/15 02:27:33;;;;;;;;;2.00;2.00;;;;;21.32;64.56;99716.16;4977326;28;46032;-67
2022/09/15 02:30:05;;;;;;;;;3.00;3.00;;;;;21.14;65.15;99698.94;4962865;28;45436;-69
2022/09/15 02:32:33;;;;;;;;;4.33;3.00;;;;;21.08;64.98;99704.41;4977172;28;45329;-68
2022/09/15 02:35:05;;;;;;;;;4.00;3.00;;;;;21.03;65.07;99695.72;4979564;28;45421;-72
2022/09/15 02:37:34;;;;;;;;;4.33;3.00;;;;;21.17;64.17;99721.88;4978420;28;46557;-68
2022/09/15 02:40:00;;;;;;;;;3.00;2.67;;;;;21.17;64.77;99721.88;4978740;28;45479;-70
2022/09/15 02:42:29;;;;;;;;;3.00;3.00;;;;;21.15;64.68;99719.28;4962472;28;45503;-78
2022/09/15 02:44:56;;;;;;;;;3.00;3.00;;;;;21.11;65.24;99716.72;4974760;28;45459;-79
2022/09/15 02:47:22;;;;;;;;;4.67;3.33;;;;;20.94;65.42;99709.22;4966612;28;45519;-68
2022/09/15 02:49:47;;;;;;;;;2.00;2.00;;;;;20.82;65.77;99707.75;4978418;28;45463;-80
2022/09/15 02:52:13;;;;;;;;;3.00;3.00;;;;;20.85;66.35;99727.13;4963647;28;45512;-77
2022/09/15 02:54:39;;;;;;;;;3.33;3.00;;;;;20.79;65.77;99714.03;4970275;28;45310;-67
2022/09/15 02:57:05;;;;;;;;;3.33;3.00;;;;;20.86;65.86;99712.06;4977919;28;45396;-74
2022/09/15 03:00:11;;;;;;;;;4.00;3.00;;;;;20.91;65.53;99719.91;4978343;28;45246;-72
2022/09/15 03:02:19;;;;;;;;;2.00;2.00;;;;;20.92;65.92;99714.56;4977154;28;45784;-67
2022/09/15 03:04:45;;;;;;;;;4.00;3.67;;;;;20.94;66.18;99727.81;4959892;28;45381;-67
2022/09/15 03:07:11;;;;;;;;;3.00;3.00;;;;;20.88;66.08;99709.38;4959737;28;46052;-67
2022/09/15 03:09:36;;;;;;;;;3.33;2.00;;;;;20.79;66.12;99708.72;4959762;28;45365;-67
2022/09/15 03:12:02;;;;;;;;;3.00;3.00;;;;;20.75;65.79;99709.69;4959876;28;45452;-67
2022/09/15 03:14:31;;;;;;;;;3.00;3.00;;;;;20.72;65.30;99704.44;4960198;28;45478;-67
2022/09/15 03:17:00;;;;;;;;;3.00;3.00;;;;;20.80;65.99;99713.09;4974450;28;47651;-79
2022/09/15 03:19:26;;;;;;;;;3.67;3.00;;;;;20.82;65.63;99726.34;4959058;28;45471;-80
2022/09/15 03:21:51;;;;;;;;;3.33;3.00;;;;;20.75;66.10;99724.72;4958967;28;45339;-80
2022/09/15 03:24:21;;;;;;;;;2.67;2.67;;;;;20.73;66.39;99716.84;4959789;28;45377;-79
2022/09/15 03:26:48;;;;;;;;;4.00;4.00;;;;;20.70;66.26;99719.53;4959634;28;46357;-79
2022/09/15 03:29:14;;;;;;;;;3.00;3.00;;;;;20.66;66.47;99718.75;4959655;28;45316;-79
2022/09/15 03:31:39;;;;;;;;;3.00;3.00;;;;;20.72;66.34;99731.00;4959857;28;45352;-67
2022/09/15 03:34:05;;;;;;;;;3.00;3.00;;;;;20.60;66.00;99715.38;4959408;28;45436;-75
2022/09/15 03:36:31;;;;;;;;;3.00;2.00;;;;;20.43;66.32;99706.03;4959122;28;46117;-67
2022/09/15 03:38:57;;;;;;;;;4.00;3.00;;;;;20.59;65.63;99740.16;4970342;28;45440;-67
2022/09/15 03:41:23;;;;;;;;;4.00;3.67;;;;;20.49;65.31;99722.69;4969095;28;45381;-67
2022/09/15 03:43:48;;;;;;;;;3.00;3.00;;;;;20.44;65.52;99714.84;4976850;28;45579;-67
2022/09/15 03:46:14;;;;;;;;;2.00;2.00;;;;;20.44;65.60;99728.97;4977300;28;46247;-74
2022/09/15 03:48:40;;;;;;;;;3.67;2.67;;;;;20.36;65.71;99708.84;4978938;28;46178;-70
2022/09/15 03:51:08;;;;;;;;;2.67;2.00;;;;;20.48;65.69;99731.56;4967320;28;45380;-67
2022/09/15 03:53:35;;;;;;;;;2.33;2.00;;;;;20.45;66.05;99722.78;4964253;28;45314;-68
2022/09/15 03:56:11;;;;;;;;;3.00;3.00;;;;;20.53;65.79;99741.16;4967038;28;46412;-69
2022/09/15 03:58:37;;;;;;;;;2.00;2.00;;;;;20.46;65.80;99743.06;4967226;28;46093;-77
2022/09/15 04:01:02;;;;;;;;;2.00;2.00;;;;;20.39;66.08;99732.63;4965905;28;45496;-68
2022/09/15 04:03:28;;;;;;;;;4.00;3.00;;;;;20.36;65.96;99736.25;4964352;28;45598;-77
2022/09/15 04:05:53;;;;;;;;;4.67;4.67;;;;;20.39;66.50;99748.56;4967284;28;47632;-78
2022/09/15 04:08:19;;;;;;;;;6.00;4.67;;;;;20.32;66.62;99750.47;4966362;28;45495;-78
2022/09/15 04:10:45;;;;;;;;;7.00;4.33;;;;;20.27;66.39;99741.75;4965962;28;45509;-71
2022/09/15 04:13:10;;;;;;;;;4.33;3.00;;;;;20.32;66.18;99752.28;4979913;28;45443;-73
2022/09/15 04:15:36;;;;;;;;;3.33;3.33;;;;;20.21;66.02;99739.22;4966380;28;45464;-78
2022/09/15 04:18:03;;;;;;;;;3.00;3.00;;;;;20.26;66.59;99761.22;4965272;28;45614;-67
2022/09/15 04:20:30;;;;;;;;;3.50;3.00;;;;;20.15;66.13;99750.84;4964513;28;45598;-77
2022/09/15 04:22:55;;;;;;;;;4.67;3.67;;;;;20.15;66.48;99753.50;4965748;28;45636;-71
2022/09/15 04:25:21;;;;;;;;;3.00;3.00;;;;;20.09;66.08;99744.81;4959560;28;46097;-69
2022/09/15 04:27:46;;;;;;;;;4.00;4.00;;;;;19.96;66.92;99750.38;4962556;28;45506;-67
2022/09/15 04:30:12;;;;;;;;;3.00;3.00;;;;;19.86;66.21;99740.88;4967142;28;45553;-78
2022/09/15 04:32:37;;;;;;;;;3.33;3.00;;;;;19.96;66.84;99766.28;4970942;28;45587;-77
2022/09/15 04:35:04;;;;;;;;;3.33;3.33;;;;;19.91;67.31;99770.81;4975611;28;46176;-74
2022/09/15 04:37:30;;;;;;;;;3.00;3.00;;;;;19.82;67.95;99771.00;4968774;28;45458;-78
2022/09/15 04:39:56;;;;;;;;;3.33;3.00;;;;;19.65;67.53;99760.69;4958228;28;45398;-73
2022/09/15 04:42:22;;;;;;;;;4.00;3.00;;;;;19.63;67.37;99778.41;4973324;28;45360;-70
2022/09/15 04:44:48;;;;;;;;;2.00;2.00;;;;;19.57;67.35;99773.22;4969570;28;46233;-67
2022/09/15 04:47:14;;;;;;;;;2.00;2.00;;;;;19.52;67.51;99767.13;4977440;28;45502;-79
2022/09/15 04:49:39;;;;;;;;;2.33;2.00;;;;;19.53;67.17;99760.94;4963696;28;45350;-75
2022/09/15 04:52:05;;;;;;;;;4.00;3.33;;;;;19.64;67.35;99777.53;4973850;28;45473;-72
2022/09/15 04:54:33;;;;;;;;;3.33;2.67;;;;;19.56;67.81;99772.38;4976931;28;45522;-75
2022/09/15 04:56:58;;;;;;;;;3.00;3.00;;;;;19.58;67.46;99775.00;4977085;28;45376;-79
2022/09/15 04:59:24;;;;;;;;;3.00;3.00;;;;;19.50;67.39;99768.94;4977098;28;45447;-67
2022/09/15 05:01:54;;;;;;;;;2.00;2.00;;;;;19.63;67.47;99792.53;4976070;28;45499;-69
2022/09/15 05:04:19;;;;;;;;;3.33;3.00;;;;;19.54;67.05;99784.75;4976385;28;45411;-72
2022/09/15 05:06:45;;;;;;;;;3.33;3.00;;;;;19.47;67.26;99778.69;4976934;28;45424;-72
2022/09/15 05:09:12;;;;;;;;;3.00;3.00;;;;;19.49;67.22;99781.31;4963064;28;45515;-68
2022/09/15 05:11:38;;;;;;;;;3.00;2.00;;;;;19.56;67.68;99793.56;4972738;28;45492;-72
2022/09/15 05:14:03;;;;;;;;;2.33;2.33;;;;;19.55;67.33;99793.56;4976153;28;45776;-77
2022/09/15 05:16:30;;;;;;;;;2.67;2.67;;;;;19.49;67.38;99776.03;4976633;28;45394;-78
2022/09/15 05:18:59;;;;;;;;;3.00;3.00;;;;;19.59;67.37;99797.91;4964197;28;45494;-78
2022/09/15 05:21:26;;;;;;;;;5.00;5.00;;;;;19.54;67.84;99795.38;4973972;28;45430;-73
2022/09/15 05:23:52;;;;;;;;;4.00;3.00;;;;;19.43;67.44;99786.72;4977094;28;46211;-67
2022/09/15 05:26:21;;;;;;;;;3.00;2.33;;;;;19.48;67.61;99790.19;4976174;28;45423;-77
2022/09/15 05:28:46;;;;;;;;;2.00;2.00;;;;;19.52;67.46;99802.47;4976623;28;45466;-78
2022/09/15 05:31:16;;;;;;;;;3.33;3.33;;;;;19.41;67.09;99785.88;4975680;28;45368;-77
2022/09/15 05:33:42;;;;;;;;;3.67;3.67;;;;;19.46;67.43;99797.28;4975930;28;45602;-73
2022/09/15 05:36:08;;;;;;;;;4.33;3.00;;;;;19.48;67.21;99800.78;4976024;28;45433;-79
2022/09/15 05:38:34;;;;;;;;;3.00;3.00;;;;;19.55;67.01;99815.63;4976279;28;45480;-67
2022/09/15 05:41:08;;;;;;;;;3.67;3.67;;;;;19.34;67.82;99798.38;4958232;28;45524;-67
2022/09/15 05:43:35;;;;;;;;;4.67;3.33;;;;;19.41;67.89;99809.72;4968138;28;46223;-67
2022/09/15 05:46:02;;;;;;;;;3.00;3.00;;;;;19.45;68.22;99822.88;4968195;28;45494;-79
2022/09/15 05:48:28;;;;;;;;;3.00;3.00;;;;;19.31;68.38;99797.56;4968379;28;45658;-67
2022/09/15 05:50:55;;;;;;;;;4.00;3.33;;;;;19.48;68.23;99820.19;4967350;28;45566;-68
2022/09/15 05:53:21;;;;;;;;;2.33;2.00;;;;;19.39;67.86;99799.16;4968730;28;46104;-68
2022/09/15 05:55:47;;;;;;;;;2.67;2.67;;;;;19.50;67.69;99820.16;4974092;28;45446;-67
2022/09/15 05:58:13;;;;;;;;;3.00;3.00;;;;;19.56;67.48;99825.34;4964717;28;45476;-67
2022/09/15 06:00:40;;;;;;;;;3.00;3.00;;;;;19.48;67.57;99808.72;4978617;28;45575;-67
2022/09/15 06:03:12;;;;;;;;;3.00;3.00;;;;;19.62;67.46;99835.84;4971162;28;46234;-67
2022/09/15 06:05:37;;;;;;;;;2.67;2.67;;;;;19.59;67.49;99830.56;4960010;28;45500;-68
2022/09/15 06:08:03;;;;;;;;;3.00;2.67;;;;;19.64;67.43;99841.09;4967780;28;45590;-69
2022/09/15 06:10:28;;;;;;;;;3.67;3.33;;;;;19.67;67.30;99836.59;4970144;28;45611;-68
2022/09/15 06:12:54;;;;;;;;;2.00;2.00;;;;;19.74;66.80;99831.25;4965915;28;45595;-69
2022/09/15 06:15:22;;;;;;;;;3.67;3.00;;;;;19.91;66.32;99850.31;4969219;28;45799;-70
2022/09/15 06:17:47;;;;;;;;;2.00;2.00;;;;;19.78;66.11;99817.03;4965252;28;45949;-69
2022/09/15 06:20:13;;;;;;;;;1.33;1.33;;;;;20.06;65.38;99855.34;4965484;28;45567;-70
2022/09/15 06:22:39;;;;;;;;;3.00;3.00;;;;;20.06;66.21;99860.63;4967420;28;46056;-68
2022/09/15 06:25:05;;;;;;;;;3.00;2.00;;;;;20.05;65.83;99845.66;4963896;28;45606;-70
2022/09/15 06:27:31;;;;;;;;;2.00;2.00;;;;;20.11;65.82;99836.66;4967017;28;45444;-79
2022/09/15 06:29:57;;;;;;;;;3.00;2.00;;;;;20.18;65.17;99848.03;4971789;28;45448;-74
2022/09/15 06:32:23;;;;;;;;;3.00;3.00;;;;;20.29;65.27;99850.47;4974182;28;46427;-74
2022/09/15 06:34:48;;;;;;;;;2.00;2.00;;;;;20.48;65.15;99866.88;4967491;28;45394;-69
2022/09/15 06:37:14;;;;;;;;;3.00;2.00;;;;;20.59;65.08;99870.19;4966636;28;45412;-69
2022/09/15 06:39:42;;;;;;;;;3.33;3.33;;;;;20.70;64.83;99870.81;4966606;28;45708;-69
2022/09/15 06:42:08;;;;;;;;;2.67;2.00;;;;;20.67;64.81;99849.66;4971274;28;45640;-71
2022/09/15 06:44:33;;;;;;;;;3.00;3.00;;;;;20.82;64.61;99870.53;4968461;28;45456;-75
2022/09/15 06:46:59;;;;;;;;;1.67;1.67;;;;;20.94;64.45;99879.13;4966074;28;45543;-72
2022/09/15 06:49:24;;;;;;;;;3.00;2.00;;;;;21.02;63.63;99870.06;4960051;28;45835;-68
2022/09/15 06:51:50;;;;;;;;;4.00;4.00;;;;;21.10;64.21;99874.34;4977661;28;45450;-75
2022/09/15 06:54:15;;;;;;;;;2.00;2.00;;;;;21.34;63.50;99894.97;4978243;28;45494;-68
2022/09/15 06:56:41;;;;;;;;;3.00;3.00;;;;;21.46;62.78;99893.84;4978203;28;45521;-68
2022/09/15 06:59:09;;;;;;;;;2.00;2.00;;;;;21.47;62.79;99881.41;4977903;28;45813;-68
2022/09/15 07:01:35;;;;;;;;;5.00;4.67;;;;;21.62;62.30;99900.50;4958406;28;45489;-68
2022/09/15 07:04:04;;;;;;;;;4.00;4.00;;;;;21.62;62.48;99900.50;4967251;28;45357;-68
2022/09/15 07:06:32;;;;;;;;;3.33;2.67;;;;;21.81;62.52;99908.88;4978891;28;46073;-68
2022/09/15 07:09:00;;;;;;;;;3.00;3.00;;;;;21.53;61.22;99828.13;4976457;28;45338;-75
2022/09/15 07:11:26;;;;;;;;;3.00;2.00;;;;;21.96;61.57;99901.41;4993011;28;45499;-69
2022/09/15 07:13:51;;;;;;;;;3.00;2.00;;;;;22.05;61.24;99910.00;4968384;28;45514;-76
2022/09/15 07:16:18;;;;;;;;;3.00;2.00;;;;;22.08;61.63;99901.06;4972639;28;45319;-75
2022/09/15 07:18:45;;;;;;;;;3.33;3.33;;;;;22.01;61.41;99889.72;4975670;28;46023;-68
2022/09/15 07:21:13;;;;;;;;;3.00;2.00;;;;;22.32;61.01;99920.84;4958982;28;46620;-75
2022/09/15 07:23:39;;;;;;;;;3.00;2.00;;;;;22.36;60.84;99911.84;4968956;28;45496;-69
2022/09/15 07:26:22;;;;;;;;;4.00;4.00;;;;;22.85;60.03;99928.16;4993153;28;45410;-68
2022/09/15 07:28:50;;;;;;;;;3.00;2.00;;;;;27.05;53.41;99929.75;4978286;28;45439;-69
2022/09/15 07:31:19;;;;;;;;;3.00;2.00;;;;;30.92;42.65;99929.72;4976119;28;45482;-68
2022/09/15 07:33:44;;;;;;;;;3.00;2.00;;;;;33.33;37.42;99921.25;4977908;28;45458;-69
2022/09/15 07:36:10;;;;;;;;;2.33;2.33;;;;;35.29;34.75;99929.31;4976814;28;45519;-68
2022/09/15 07:38:41;;;;;;;;;4.00;3.33;;;;;36.91;32.05;99940.75;4977578;28;45510;-72
2022/09/15 07:41:10;;;;;;;;;3.00;2.33;;;;;38.17;29.41;99936.44;4976354;28;46400;-76
2022/09/15 07:43:36;;;;;;;;;2.67;2.00;;;;;39.08;27.96;99924.94;4964161;28;45480;-70
2022/09/15 07:46:02;;;;;;;;;3.00;2.33;;;;;39.86;26.06;99936.09;4973590;28;45444;-74
2022/09/15 07:48:28;;;;;;;;;1.67;1.67;;;;;40.46;25.07;99956.41;4977774;28;45527;-69
2022/09/15 07:50:54;;;;;;;;;2.67;2.33;;;;;41.14;24.22;99963.75;4977423;28;45272;-70
2022/09/15 07:53:20;;;;;;;;;2.67;2.67;;;;;40.36;24.34;99943.69;4976249;28;45350;-70
2022/09/15 07:55:50;;;;;;;;;2.33;2.33;;;;;37.56;27.81;99951.22;4976583;28;45549;-71
2022/09/15 07:58:16;;;;;;;;;1.67;1.67;;;;;35.21;31.19;99943.53;4977469;28;45759;-76
2022/09/15 08:00:41;;;;;;;;;2.33;2.00;;;;;33.86;33.25;99944.28;4966268;28;45793;-69
2022/09/15 08:03:07;;;;;;;;;6.67;6.67;;;;;32.90;35.44;99960.41;4957094;28;45464;-69
2022/09/15 08:05:32;;;;;;;;;2.33;2.33;;;;;32.13;36.12;99955.00;4972975;28;45300;-69
2022/09/15 08:07:58;;;;;;;;;3.33;2.33;;;;;32.08;37.12;99955.34;4974491;28;45499;-69
2022/09/15 08:10:24;;;;;;;;;3.67;2.33;;;;;31.65;36.78;99927.66;4972624;28;46213;-69
2022/09/15 08:12:51;;;;;;;;;1.67;1.67;;;;;31.36;37.70;99959.31;4957999;28;45462;-70
2022/09/15 08:15:17;;;;;;;;;2.67;2.00;;;;;30.77;38.95;99936.06;4956932;28;45512;-69
2022/09/15 08:17:43;;;;;;;;;2.00;2.00;;;;;30.67;39.28;99970.81;4973366;28;45487;-69
2022/09/15 08:20:09;;;;;;;;;2.67;2.00;;;;;30.66;39.59;99969.09;4975750;28;47007;-75
2022/09/15 08:22:35;;;;;;;;;2.00;2.00;;;;;30.87;39.38;99972.25;4976742;28;45712;-71
2022/09/15 08:25:01;;;;;;;;;1.00;1.00;;;;;31.61;38.04;99953.16;4976332;28;45390;-72
2022/09/15 08:27:26;;;;;;;;;1.00;1.00;;;;;31.51;38.44;99971.78;4976842;28;45513;-70
2022/09/15 08:29:52;;;;;;;;;3.00;3.00;;;;;32.40;37.98;99962.16;4965155;28;46133;-70
2022/09/15 08:32:17;;;;;;;;;4.00;3.00;;;;;32.65;36.92;99982.94;4970805;28;45284;-70
2022/09/15 08:34:44;;;;;;;;;1.67;1.33;;;;;32.26;37.78;99974.81;4972410;28;45424;-68
2022/09/15 08:37:10;;;;;;;;;1.67;1.67;;;;;32.21;37.83;99973.38;4963372;28;45485;-70
2022/09/15 08:39:35;;;;;;;;;5.00;4.00;;;;;32.00;38.71;99979.31;4968929;28;45464;-69
2022/09/15 08:42:02;;;;;;;;;3.00;2.67;;;;;32.21;38.81;99982.38;4955536;28;45452;-69
2022/09/15 08:44:38;;;;;;;;;1.67;1.67;;;;;32.25;38.32;99997.41;4971739;28;45556;-70
2022/09/15 08:47:41;;;;;;;;;2.00;2.00;;;;;31.81;39.51;99997.72;4977234;28;45516;-76
2022/09/15 08:50:38;;;;;;;;;2.00;2.00;;;;;31.61;39.68;100005.28;4925723;28;46613;-69
2022/09/15 08:53:08;;;;;;;;;1.00;1.00;;;;;31.48;39.92;100001.69;4964277;28;45441;-75
2022/09/15 08:55:44;;;;;;;;;2.67;1.67;;;;;31.28;39.93;99990.34;4976583;28;45478;-69
2022/09/15 08:58:19;;;;;;;;;1.33;1.33;;;;;31.35;40.08;100012.38;4961588;28;45242;-74
2022/09/15 09:00:47;;;;;;;;;2.00;2.00;;;;;31.30;39.45;99990.25;4974827;28;45838;-69
2022/09/15 09:03:31;;;;;;;;;2.00;1.67;;;;;31.50;40.08;100011.41;4960169;28;45305;-69
2022/09/15 09:06:19;;;;;;;;;2.00;2.00;;;;;31.59;38.23;100012.63;4963472;28;45440;-69
2022/09/15 09:09:07;;;;;;;;;1.00;1.00;;;;;31.40;38.00;99934.69;4963366;28;45403;-68
2022/09/15 09:11:40;;;;;;;;;3.33;1.67;;;;;32.17;36.79;100013.31;4958750;28;45675;-69
2022/09/15 09:14:31;;;;;;;;;2.67;2.00;;;;;32.15;35.31;100009.81;4975875;28;45395;-69
2022/09/15 09:17:14;;;;;;;;;2.67;1.33;;;;;31.92;36.15;100033.81;4975432;28;45407;-70
2022/09/15 09:19:58;;;;;;;;;1.00;1.00;;;;;31.60;36.10;100032.44;4974288;28;45515;-73
2022/09/15 09:22:29;;;;;;;;;1.00;1.00;;;;;31.48;36.88;100029.56;4972538;28;46573;-77
2022/09/15 09:24:57;;;;;;;;;3.33;3.00;;;;;31.54;36.73;100022.03;4978182;28;45509;-71
2022/09/15 09:27:33;;;;;;;;;3.00;2.00;;;;;31.66;37.49;100034.72;4979144;28;45526;-75
2022/09/15 09:30:06;;;;;;;;;4.00;4.00;;;;;31.98;37.54;100037.97;4968708;28;45332;-70
2022/09/15 09:33:14;;;;;;;;;1.67;1.67;;;;;32.18;37.35;100041.19;4974670;28;46227;-69
2022/09/15 09:35:53;;;;;;;;;1.00;1.00;;;;;32.36;36.50;100034.50;4939765;28;45626;-75
2022/09/15 09:38:26;;;;;;;;;1.00;1.00;;;;;32.41;37.46;100043.16;4979756;28;45396;-69
2022/09/15 09:40:52;;;;;;;;;0.67;0.67;;;;;32.55;37.01;100030.50;4977960;28;45404;-69
2022/09/15 09:43:17;;;;;;;;;1.00;1.00;;;;;32.76;36.16;100037.16;4978630;28;45491;-75
2022/09/15 09:45:44;;;;;;;;;1.00;1.00;;;;;32.94;36.31;100045.78;4978838;28;45381;-70
2022/09/15 09:48:21;;;;;;;;;0.33;0.33;;;;;33.01;36.77;100049.78;4963195;28;45508;-68
2022/09/15 09:50:49;;;;;;;;;1.33;1.33;;;;;32.45;36.01;100047.38;4964769;28;45321;-73
2022/09/15 09:53:32;;;;;;;;;2.00;1.33;;;;;32.16;37.09;100051.22;4975814;28;45629;-70
2022/09/15 09:56:22;;;;;;;;;1.67;1.67;;;;;31.94;36.73;100038.28;4968539;28;45502;-70
2022/09/15 09:58:49;;;;;;;;;3.00;3.00;;;;;32.56;36.98;100051.22;4978058;28;45340;-69
2022/09/15 10:01:17;;;;;;;;;0.67;0.67;;;;;32.75;36.59;100038.13;4979346;28;45480;-69
2022/09/15 10:03:44;;;;;;;;;1.67;1.67;;;;;32.33;37.38;100050.06;4977528;28;46375;-69
2022/09/15 10:06:17;;;;;;;;;1.67;1.67;;;;;32.36;36.89;100037.19;4977511;28;45468;-70
2022/09/15 10:09:04;;;;;;;;;2.00;1.00;;;;;32.32;36.33;100038.38;4974003;28;45628;-69
2022/09/15 10:11:50;;;;;;;;;1.67;1.67;;;;;32.74;35.79;100055.31;4967588;28;45360;-72
2022/09/15 10:14:24;;;;;;;;;2.00;1.00;;;;;32.37;36.54;100040.75;4977392;28;46483;-76
2022/09/15 10:17:10;;;;;;;;;2.33;1.67;;;;;33.11;35.99;100055.44;4958430;28;45447;-70
2022/09/15 10:19:48;;;;;;;;;2.00;2.00;;;;;33.47;35.04;100051.88;4971380;28;45502;-70
2022/09/15 10:22:36;;;;;;;;;1.67;1.67;;;;;34.00;34.65;100029.94;4976169;28;45595;-70
2022/09/15 10:25:19;;;;;;;;;1.67;1.67;;;;;34.33;34.31;100035.59;4965444;28;46622;-69
2022/09/15 10:28:10;;;;;;;;;3.00;2.67;;;;;34.33;34.22;100044.59;4963572;28;45547;-70
2022/09/15 10:30:36;;;;;;;;;2.67;2.67;;;;;34.49;33.39;100029.84;4964907;28;45383;-74
2022/09/15 10:33:22;;;;;;;;;1.00;1.00;;;;;34.46;32.95;100033.63;4978542;28;45446;-69
2022/09/15 10:35:48;;;;;;;;;2.33;1.33;;;;;34.60;33.00;100010.84;4961554;28;46043;-69
2022/09/15 10:38:33;;;;;;;;;1.67;1.67;;;;;34.75;33.06;100019.66;4972942;28;45361;-70
2022/09/15 10:41:11;;;;;;;;;1.33;0.67;;;;;34.77;33.33;100036.69;4970199;28;45356;-76
2022/09/15 10:44:19;;;;;;;;;1.33;1.33;;;;;34.72;33.51;100044.31;4977188;28;45264;-70
2022/09/15 10:47:13;;;;;;;;;1.67;1.67;;;;;34.62;33.21;100027.88;4948147;28;46395;-71
2022/09/15 10:50:09;;;;;;;;;1.00;1.00;;;;;34.67;33.59;100037.41;4977330;28;45363;-71
2022/09/15 10:52:53;;;;;;;;;1.00;1.00;;;;;34.32;33.98;100042.88;4978232;28;45517;-69
2022/09/15 10:55:30;;;;;;;;;2.67;2.67;;;;;33.96;34.00;100032.97;4961090;28;45505;-70
2022/09/15 10:58:12;;;;;;;;;1.67;1.67;;;;;34.22;34.39;100033.69;4975060;28;46219;-70
2022/09/15 11:01:08;;;;;;;;;0.00;0.00;;;;;34.80;33.60;100039.19;4962154;28;45278;-70
2022/09/15 11:03:54;;;;;;;;;1.33;1.33;;;;;34.82;33.65;100031.78;4970354;28;45333;-70
2022/09/15 11:06:23;;;;;;;;;1.33;1.33;;;;;34.82;32.77;100031.78;4978284;28;45280;-69
2022/09/15 11:08:54;;;;;;;;;2.67;2.67;;;;;34.44;33.89;100031.06;4976472;28;45447;-70
2022/09/15 11:11:44;;;;;;;;;1.67;1.67;;;;;34.54;33.25;100035.75;4960122;28;45370;-69
2022/09/15 11:14:20;;;;;;;;;2.33;1.67;;;;;34.74;33.67;100031.50;4978218;28;45488;-70
2022/09/15 11:16:46;;;;;;;;;1.00;1.00;;;;;35.21;32.89;100046.69;4962339;28;45428;-70
2022/09/15 11:19:45;;;;;;;;;0.33;0.00;;;;;35.43;32.40;100044.94;4961794;28;46115;-70
2022/09/15 11:22:21;;;;;;;;;0.67;0.67;;;;;35.40;32.44;100037.94;4977636;28;45598;-75
2022/09/15 11:24:56;;;;;;;;;1.67;1.00;;;;;35.54;32.67;100039.50;4977193;28;45313;-71
2022/09/15 11:28:03;;;;;;;;;1.67;0.67;;;;;35.56;31.97;100044.81;4976717;28;45556;-70
2022/09/15 11:30:39;;;;;;;;;1.00;1.00;;;;;35.18;32.75;100040.69;4916940;28;46165;-69
2022/09/15 11:33:31;;;;;;;;;1.00;1.00;;;;;35.17;33.41;100039.81;4968429;28;45531;-69
2022/09/15 11:36:32;;;;;;;;;0.33;0.33;;;;;35.37;33.10;100024.59;4976922;28;45424;-70
2022/09/15 11:39:09;;;;;;;;;2.00;1.00;;;;;35.36;33.21;100039.19;4971204;28;45388;-69
2022/09/15 11:41:51;;;;;;;;;0.67;0.67;;;;;35.39;33.69;100021.75;4957356;28;45559;-70
2022/09/15 11:44:16;;;;;;;;;2.00;1.67;;;;;34.93;33.23;100034.47;4957826;28;45624;-70
2022/09/15 11:47:00;;;;;;;;;0.67;0.67;;;;;34.50;33.66;100036.97;4974484;28;45467;-70
2022/09/15 11:49:48;;;;;;;;;1.67;0.67;;;;;34.32;34.38;100009.47;4976099;28;45506;-70